Time;durP1;ratioP1;P1;durP2;ratioP2;P2;SDS_P1;SDS_P2;PMS_P1;PMS_P2;Temp;Humidity;BMP_temperature;BMP_pressure;BME280_temperature;BME280_humidity;BME280_pressure;Samples;Min_cycle;Max_cycle;Signal;HPM_P1;HPM_P2
2022/07/31 00:00:30;;;;;;;17.95;5.00;;;29.40;99.90;;;;;;5000839;23;20050;-45
2022/07/31 00:02:56;;;;;;;18.45;5.22;;;29.40;99.90;;;;;;5003080;28;20117;-45
2022/07/31 00:05:24;;;;;;;18.52;5.20;;;29.30;99.90;;;;;;5000029;28;20054;-46
2022/07/31 00:07:50;;;;;;;15.10;4.60;;;29.30;99.90;;;;;;5008500;28;20030;-46
2022/07/31 00:10:16;;;;;;;22.40;5.18;;;29.30;99.90;;;;;;4999803;28;20035;-48
2022/07/31 00:12:41;;;;;;;14.77;4.72;;;29.30;99.90;;;;;;5004783;28;20018;-48
2022/07/31 00:15:11;;;;;;;20.50;4.85;;;29.20;99.90;;;;;;5013938;28;20038;-47
2022/07/31 00:17:38;;;;;;;15.10;5.57;;;29.20;99.90;;;;;;5014348;28;20080;-46
2022/07/31 00:20:05;;;;;;;14.50;5.20;;;29.10;99.90;;;;;;5014200;28;20026;-47
2022/07/31 00:22:31;;;;;;;16.65;4.57;;;29.10;99.90;;;;;;5003767;28;20030;-46
2022/07/31 00:24:57;;;;;;;17.00;4.88;;;29.10;99.90;;;;;;5004202;28;20105;-46
2022/07/31 00:27:23;;;;;;;14.60;5.68;;;29.00;99.90;;;;;;5014124;28;20028;-47
2022/07/31 00:29:49;;;;;;;17.48;5.47;;;29.00;99.90;;;;;;5013948;28;20026;-47
2022/07/31 00:32:15;;;;;;;14.52;4.85;;;29.00;99.90;;;;;;5014115;28;20358;-47
2022/07/31 00:34:43;;;;;;;12.68;4.88;;;29.00;99.90;;;;;;5007094;28;20037;-46
2022/07/31 00:37:09;;;;;;;14.82;4.63;;;28.90;99.90;;;;;;5006663;28;20455;-45
2022/07/31 00:39:35;;;;;;;16.90;4.50;;;28.90;99.90;;;;;;5013820;28;20041;-47
2022/07/31 00:42:01;;;;;;;17.23;4.22;;;28.90;99.90;;;;;;5013917;28;20124;-47
2022/07/31 00:44:27;;;;;;;12.82;4.35;;;28.90;99.90;;;;;;5013816;28;20046;-47
2022/07/31 00:46:53;;;;;;;11.63;4.95;;;28.90;99.90;;;;;;4998711;28;20065;-47
2022/07/31 00:49:20;;;;;;;15.77;6.25;;;28.90;99.90;;;;;;5011926;28;20049;-47
2022/07/31 00:51:46;;;;;;;13.70;4.97;;;28.90;99.90;;;;;;4995167;28;20457;-47
2022/07/31 00:54:12;;;;;;;16.20;5.03;;;28.90;99.90;;;;;;5005184;28;20030;-47
2022/07/31 00:56:38;;;;;;;18.13;5.35;;;28.90;99.90;;;;;;5000331;28;20048;-47
2022/07/31 00:59:04;;;;;;;17.55;4.65;;;28.90;99.90;;;;;;5012563;28;20026;-47
2022/07/31 01:01:31;;;;;;;14.85;4.95;;;28.90;99.90;;;;;;5005030;28;20038;-48
2022/07/31 01:03:57;;;;;;;13.77;4.90;;;28.90;99.90;;;;;;5001635;28;20080;-48
2022/07/31 01:06:22;;;;;;;15.90;5.32;;;28.80;99.90;;;;;;5013309;28;20030;-48
2022/07/31 01:08:48;;;;;;;15.68;4.22;;;28.90;99.90;;;;;;5013066;28;20083;-47
2022/07/31 01:11:37;;;;;;;13.73;4.45;;;28.80;99.90;;;;;;4999267;28;20088;-47
2022/07/31 01:14:06;;;;;;;12.93;4.32;;;28.80;99.90;;;;;;4986967;28;20014;-48
2022/07/31 01:16:54;;;;;;;16.92;5.72;;;28.80;99.90;;;;;;4989973;28;20390;-48
2022/07/31 01:19:40;;;;;;;12.43;4.68;;;28.80;99.90;;;;;;4993158;28;20085;-47
2022/07/31 01:22:44;;;;;;;20.90;5.05;;;28.80;99.90;;;;;;4992543;28;20181;-47
2022/07/31 01:25:16;;;;;;;16.92;4.68;;;28.80;99.90;;;;;;4999052;28;20378;-48
2022/07/31 01:28:09;;;;;;;17.25;4.93;;;28.80;99.90;;;;;;5011250;28;20036;-48
2022/07/31 01:30:59;;;;;;;13.13;4.50;;;28.80;99.90;;;;;;4996094;28;20401;-48
2022/07/31 01:33:31;;;;;;;12.45;4.40;;;28.80;99.90;;;;;;4987425;28;20211;-47
2022/07/31 01:36:12;;;;;;;17.00;5.60;;;28.90;99.90;;;;;;4996457;28;20438;-47
2022/07/31 01:38:42;;;;;;;10.77;5.03;;;28.90;99.90;;;;;;4987886;28;20060;-48
2022/07/31 01:41:12;;;;;;;17.73;4.65;;;28.90;99.90;;;;;;5000710;28;20026;-48
2022/07/31 01:43:45;;;;;;;19.90;5.57;;;28.90;99.90;;;;;;5010572;28;20029;-48
2022/07/31 01:46:14;;;;;;;10.82;4.45;;;28.90;99.90;;;;;;5010967;28;20473;-47
2022/07/31 01:48:41;;;;;;;14.98;4.50;;;29.00;99.90;;;;;;5011059;28;20033;-48
2022/07/31 01:51:09;;;;;;;15.82;4.75;;;29.00;99.90;;;;;;5011465;28;20307;-47
2022/07/31 01:53:37;;;;;;;13.25;4.38;;;29.00;99.90;;;;;;5009193;28;20598;-47
2022/07/31 01:56:05;;;;;;;14.50;4.80;;;29.00;99.90;;;;;;5001423;28;20041;-47
2022/07/31 01:58:41;;;;;;;17.30;4.88;;;29.00;99.90;;;;;;5004216;28;20482;-48
2022/07/31 02:01:08;;;;;;;14.45;4.53;;;29.10;99.90;;;;;;4988312;28;20050;-48
2022/07/31 02:03:36;;;;;;;13.25;3.97;;;29.10;99.90;;;;;;4996260;28;20026;-47
2022/07/31 02:06:03;;;;;;;18.05;5.35;;;29.10;99.90;;;;;;5005526;28;20017;-47
2022/07/31 02:08:30;;;;;;;9.33;4.40;;;29.10;99.90;;;;;;4983267;28;20093;-48
2022/07/31 02:10:56;;;;;;;;;;;29.10;99.90;;;;;;5010756;28;20252;-48
2022/07/31 02:13:23;;;;;;;16.00;6.20;;;29.10;99.90;;;;;;5011972;28;20006;-47
2022/07/31 02:15:50;;;;;;;18.92;4.88;;;29.10;99.90;;;;;;5009817;28;20370;-48
2022/07/31 02:18:18;;;;;;;20.52;5.78;;;29.00;99.90;;;;;;4992568;28;20026;-47
2022/07/31 02:20:45;;;;;;;14.95;5.13;;;29.00;99.90;;;;;;5006799;28;20058;-48
2022/07/31 02:23:12;;;;;;;14.98;4.88;;;29.00;99.90;;;;;;5011950;28;20014;-48
2022/07/31 02:25:39;;;;;;;17.20;4.97;;;29.10;99.90;;;;;;5011973;28;20068;-48
2022/07/31 02:28:09;;;;;;;10.35;4.90;;;29.10;99.90;;;;;;5010954;28;20021;-47
2022/07/31 02:30:40;;;;;;;12.10;5.22;;;29.00;99.90;;;;;;5011773;28;20036;-47
2022/07/31 02:33:09;;;;;;;14.20;5.32;;;29.00;99.90;;;;;;5010857;28;20057;-47
2022/07/31 02:35:35;;;;;;;15.30;5.25;;;29.10;99.90;;;;;;5010567;28;20434;-47
2022/07/31 02:38:02;;;;;;;14.32;4.93;;;29.10;99.90;;;;;;5010814;28;20026;-47
2022/07/31 02:40:28;;;;;;;;;;;29.10;99.90;;;;;;5012390;28;20026;-47
2022/07/31 02:42:54;;;;;;;18.27;4.97;;;29.00;99.90;;;;;;5011918;28;20004;-47
2022/07/31 02:45:21;;;;;;;23.58;5.03;;;29.00;99.90;;;;;;5011915;28;20026;-47
2022/07/31 02:47:48;;;;;;;11.77;4.47;;;29.00;99.90;;;;;;5012159;28;20474;-47
2022/07/31 02:50:15;;;;;;;17.95;5.03;;;29.00;99.90;;;;;;5011774;28;20092;-47
2022/07/31 02:52:42;;;;;;;15.55;4.43;;;29.00;99.90;;;;;;5011659;28;20050;-47
2022/07/31 02:55:09;;;;;;;32.77;7.03;;;29.00;99.90;;;;;;5011776;28;20041;-48
2022/07/31 02:57:35;;;;;;;11.45;5.07;;;29.00;99.90;;;;;;5011746;28;20450;-47
2022/07/31 03:00:13;;;;;;;17.05;4.95;;;29.00;99.90;;;;;;5012369;28;20060;-47
2022/07/31 03:02:40;;;;;;;14.80;5.30;;;29.00;99.90;;;;;;5011515;28;20021;-47
2022/07/31 03:05:07;;;;;;;21.17;5.35;;;29.00;99.90;;;;;;5011595;28;20025;-47
2022/07/31 03:07:32;;;;;;;16.80;4.97;;;29.00;99.90;;;;;;5011807;28;20501;-48
2022/07/31 03:09:58;;;;;;;13.40;4.90;;;29.00;99.90;;;;;;5011381;28;20049;-47
2022/07/31 03:12:24;;;;;;;13.93;4.75;;;29.00;99.90;;;;;;5011511;28;20470;-47
2022/07/31 03:14:52;;;;;;;14.75;5.90;;;29.00;99.90;;;;;;5011624;28;20037;-47
2022/07/31 03:17:19;;;;;;;15.82;6.05;;;29.10;99.90;;;;;;5011642;28;20033;-48
2022/07/31 03:19:45;;;;;;;11.13;5.20;;;29.10;99.90;;;;;;5011593;28;20026;-47
2022/07/31 03:22:11;;;;;;;15.05;5.25;;;29.10;99.90;;;;;;5011354;28;20037;-47
2022/07/31 03:24:38;;;;;;;20.05;5.43;;;29.00;99.90;;;;;;5011350;28;20061;-47
2022/07/31 03:27:03;;;;;;;18.90;6.13;;;29.00;99.90;;;;;;5011492;28;20030;-47
2022/07/31 03:29:39;;;;;;;17.98;5.72;;;29.00;99.90;;;;;;5011297;28;20018;-48
2022/07/31 03:32:05;;;;;;;15.63;4.50;;;29.00;99.90;;;;;;5011372;28;20156;-47
2022/07/31 03:34:31;;;;;;;16.35;4.85;;;29.00;99.90;;;;;;5011262;28;20492;-47
2022/07/31 03:36:57;;;;;;;20.48;5.60;;;29.00;99.90;;;;;;5011274;28;20057;-47
2022/07/31 03:39:24;;;;;;;15.52;5.20;;;29.00;99.90;;;;;;5011599;28;20022;-47
2022/07/31 03:41:51;;;;;;;17.20;5.78;;;29.00;99.90;;;;;;5015486;28;20077;-47
2022/07/31 03:44:18;;;;;;;11.63;4.97;;;29.00;99.90;;;;;;5015045;28;20477;-48
2022/07/31 03:46:44;;;;;;;18.65;5.13;;;29.00;99.90;;;;;;5014918;28;20493;-48
2022/07/31 03:49:11;;;;;;;16.35;6.07;;;29.00;99.90;;;;;;5015063;28;20037;-47
2022/07/31 03:51:36;;;;;;;14.95;4.95;;;29.00;99.90;;;;;;5015119;28;20104;-47
2022/07/31 03:54:03;;;;;;;13.70;4.80;;;29.00;99.90;;;;;;5015003;28;20538;-44
2022/07/31 03:56:29;;;;;;;17.27;5.32;;;29.00;99.90;;;;;;5014858;28;20034;-46
2022/07/31 03:58:56;;;;;;;13.27;5.10;;;29.00;99.90;;;;;;5014838;28;20022;-45
2022/07/31 04:01:22;;;;;;;11.88;5.57;;;29.00;99.90;;;;;;5015826;28;20057;-45
2022/07/31 04:03:48;;;;;;;22.05;5.53;;;29.00;99.90;;;;;;5014780;28;20032;-46
2022/07/31 04:06:13;;;;;;;15.60;5.15;;;29.00;99.90;;;;;;5014685;28;20025;-45
2022/07/31 04:08:39;;;;;;;15.88;5.90;;;28.90;99.90;;;;;;5014551;28;20025;-46
2022/07/31 04:11:05;;;;;;;12.63;5.45;;;29.00;99.90;;;;;;5014660;28;20041;-46
2022/07/31 04:13:31;;;;;;;15.10;5.82;;;29.00;99.90;;;;;;5014437;28;20022;-46
2022/07/31 04:15:56;;;;;;;15.57;5.93;;;29.00;99.90;;;;;;5014405;28;20042;-46
2022/07/31 04:18:22;;;;;;;14.52;6.30;;;29.00;99.90;;;;;;5014591;28;20029;-46
2022/07/31 04:20:48;;;;;;;17.20;5.75;;;29.00;99.90;;;;;;5014543;28;20025;-46
2022/07/31 04:23:14;;;;;;;18.77;6.15;;;29.00;99.90;;;;;;5014371;28;20013;-45
2022/07/31 04:25:39;;;;;;;12.88;5.68;;;29.00;99.90;;;;;;5014349;28;20474;-46
2022/07/31 04:28:05;;;;;;;14.43;5.60;;;29.00;99.90;;;;;;5013030;28;20478;-46
2022/07/31 04:30:31;;;;;;;16.85;5.80;;;29.00;99.90;;;;;;5014354;28;20026;-46
2022/07/31 04:32:58;;;;;;;15.35;5.43;;;29.00;99.90;;;;;;5014186;28;20026;-46
2022/07/31 04:35:23;;;;;;;14.38;5.43;;;29.00;99.90;;;;;;5014374;28;20478;-46
2022/07/31 04:37:49;;;;;;;13.40;5.38;;;29.00;99.90;;;;;;5014135;28;20032;-46
2022/07/31 04:40:15;;;;;;;16.23;6.00;;;29.00;99.90;;;;;;5014171;28;20022;-46
2022/07/31 04:42:41;;;;;;;22.50;6.00;;;29.00;99.90;;;;;;5014102;28;20501;-46
2022/07/31 04:45:08;;;;;;;12.02;5.60;;;29.00;99.90;;;;;;5014041;28;20025;-46
2022/07/31 04:47:33;;;;;;;13.45;5.25;;;29.00;99.90;;;;;;5014063;28;20065;-46
2022/07/31 04:49:59;;;;;;;11.10;5.25;;;29.00;99.90;;;;;;5013790;28;20466;-45
2022/07/31 04:52:25;;;;;;;20.55;5.70;;;29.00;99.90;;;;;;5013109;28;20030;-46
2022/07/31 04:54:51;;;;;;;23.17;6.15;;;28.90;99.90;;;;;;5013631;28;20137;-46
2022/07/31 04:57:17;;;;;;;10.38;5.43;;;28.90;99.90;;;;;;5013669;28;20033;-46
2022/07/31 04:59:43;;;;;;;17.30;5.25;;;29.00;99.90;;;;;;5013537;28;20050;-47
2022/07/31 05:02:09;;;;;;;11.95;5.38;;;29.00;99.90;;;;;;5013688;28;20041;-46
2022/07/31 05:04:34;;;;;;;16.45;5.68;;;29.00;99.90;;;;;;5013675;28;20029;-46
2022/07/31 05:07:00;;;;;;;11.73;5.32;;;29.10;99.90;;;;;;5013535;28;20507;-46
2022/07/31 05:09:31;;;;;;;20.25;5.50;;;29.00;99.90;;;;;;5013696;28;20490;-46
2022/07/31 05:11:57;;;;;;;12.55;5.68;;;29.00;99.90;;;;;;5013820;28;20406;-46
2022/07/31 05:14:23;;;;;;;21.77;5.75;;;29.10;99.90;;;;;;5013691;28;20026;-46
2022/07/31 05:16:49;;;;;;;12.13;5.38;;;29.10;99.90;;;;;;5013273;28;20069;-46
2022/07/31 05:19:16;;;;;;;13.70;5.78;;;29.10;99.90;;;;;;5013471;28;20486;-46
2022/07/31 05:21:43;;;;;;;12.70;5.38;;;29.10;99.90;;;;;;5013317;28;20041;-46
2022/07/31 05:24:09;;;;;;;14.45;5.55;;;29.10;99.90;;;;;;5013284;28;20084;-46
2022/07/31 05:26:34;;;;;;;14.80;5.85;;;29.10;99.90;;;;;;5013173;28;20030;-46
2022/07/31 05:29:01;;;;;;;11.60;5.63;;;29.00;99.90;;;;;;5013196;28;20034;-45
2022/07/31 05:31:27;;;;;;;9.18;5.35;;;29.00;99.90;;;;;;5013401;28;20495;-46
2022/07/31 05:33:53;;;;;;;15.40;5.70;;;29.10;99.90;;;;;;5013156;28;20121;-45
2022/07/31 05:36:19;;;;;;;11.90;5.70;;;29.10;99.90;;;;;;5012998;28;20073;-46
2022/07/31 05:38:46;;;;;;;20.30;5.80;;;29.10;99.90;;;;;;5012866;28;20027;-46
2022/07/31 05:41:13;;;;;;;10.17;6.03;;;29.10;99.90;;;;;;5012935;28;20034;-46
2022/07/31 05:43:39;;;;;;;15.27;5.40;;;29.10;99.90;;;;;;5012818;28;20026;-46
2022/07/31 05:46:05;;;;;;;20.35;7.07;;;29.10;99.90;;;;;;5012706;28;20022;-46
2022/07/31 05:48:31;;;;;;;14.75;7.05;;;29.10;99.90;;;;;;4995256;28;20014;-46
2022/07/31 05:50:57;;;;;;;14.67;6.47;;;29.20;99.90;;;;;;5013158;28;20397;-46
2022/07/31 05:53:23;;;;;;;11.07;5.60;;;29.10;99.90;;;;;;5012776;28;20014;-45
2022/07/31 05:55:49;;;;;;;11.68;6.28;;;29.10;99.90;;;;;;5012605;28;20034;-46
2022/07/31 05:58:17;;;;;;;19.52;6.90;;;29.10;99.90;;;;;;5012413;28;20026;-46
2022/07/31 06:00:45;;;;;;;12.20;6.55;;;29.10;99.90;;;;;;5012365;28;20130;-46
2022/07/31 06:03:11;;;;;;;12.65;6.07;;;29.20;99.90;;;;;;5012375;28;20088;-46
2022/07/31 06:05:38;;;;;;;18.65;6.40;;;29.10;99.90;;;;;;4994726;28;20109;-46
2022/07/31 06:08:05;;;;;;;16.33;6.35;;;29.10;99.90;;;;;;5012630;28;20033;-46
2022/07/31 06:10:31;;;;;;;13.90;6.43;;;29.10;99.90;;;;;;5012328;28;20495;-46
2022/07/31 06:12:56;;;;;;;17.63;6.63;;;29.10;99.90;;;;;;5011301;28;20026;-47
2022/07/31 06:15:22;;;;;;;17.90;6.90;;;29.10;99.90;;;;;;5012298;28;20094;-46
2022/07/31 06:17:48;;;;;;;21.75;7.03;;;29.10;99.90;;;;;;5012327;28;20049;-46
2022/07/31 06:20:14;;;;;;;18.83;6.43;;;29.10;99.90;;;;;;5012386;28;20038;-46
2022/07/31 06:22:42;;;;;;;20.15;7.47;;;29.10;99.90;;;;;;5012158;28;20016;-46
2022/07/31 06:25:09;;;;;;;16.88;6.53;;;29.10;99.90;;;;;;4994572;28;20022;-46
2022/07/31 06:27:35;;;;;;;21.33;6.72;;;29.10;99.90;;;;;;5012149;28;20061;-46
2022/07/31 06:30:05;;;;;;;19.38;6.72;;;29.10;99.90;;;;;;5012337;28;20010;-46
2022/07/31 06:32:31;;;;;;;21.00;7.35;;;29.10;99.90;;;;;;5012239;28;20026;-46
2022/07/31 06:34:58;;;;;;;18.42;6.43;;;29.10;99.90;;;;;;5012305;28;20025;-46
2022/07/31 06:37:24;;;;;;;17.65;6.60;;;29.10;99.90;;;;;;5010491;28;20045;-47
2022/07/31 06:39:51;;;;;;;15.77;7.47;;;29.10;99.90;;;;;;5011977;28;20108;-46
2022/07/31 06:42:18;;;;;;;15.80;5.88;;;29.00;99.90;;;;;;5011735;28;20050;-47
2022/07/31 06:44:44;;;;;;;24.80;7.55;;;29.10;99.90;;;;;;5011740;28;20397;-46
2022/07/31 06:47:10;;;;;;;14.95;6.72;;;29.10;99.90;;;;;;5011775;28;20045;-46
2022/07/31 06:49:36;;;;;;;16.90;5.93;;;29.10;99.90;;;;;;4994073;28;20023;-47
2022/07/31 06:52:02;;;;;;;22.15;6.00;;;29.10;99.90;;;;;;5011969;28;20029;-46
2022/07/31 06:54:28;;;;;;;11.25;5.47;;;29.10;99.90;;;;;;5011836;28;20112;-46
2022/07/31 06:56:53;;;;;;;17.38;6.35;;;29.10;99.90;;;;;;5011447;28;20125;-47
2022/07/31 06:59:19;;;;;;;14.55;5.72;;;29.10;99.90;;;;;;5011408;28;20053;-46
2022/07/31 07:01:45;;;;;;;13.30;5.82;;;29.10;99.90;;;;;;5011657;28;20033;-47
2022/07/31 07:04:10;;;;;;;22.20;5.82;;;29.10;99.90;;;;;;5011674;28;20049;-47
2022/07/31 07:06:36;;;;;;;14.48;5.80;;;29.10;99.90;;;;;;5011659;28;20061;-47
2022/07/31 07:09:02;;;;;;;18.23;6.32;;;29.10;99.90;;;;;;5011742;28;20104;-47
2022/07/31 07:11:28;;;;;;;19.60;6.93;;;29.10;99.90;;;;;;5011548;28;20109;-47
2022/07/31 07:13:54;;;;;;;12.60;6.63;;;29.10;99.90;;;;;;5011460;28;20045;-47
2022/07/31 07:16:19;;;;;;;18.25;7.88;;;29.10;99.90;;;;;;5010944;28;20452;-47
2022/07/31 07:18:45;;;;;;;14.45;5.93;;;29.10;99.90;;;;;;5011530;28;20018;-47
2022/07/31 07:21:11;;;;;;;17.23;6.28;;;29.10;99.90;;;;;;5011390;28;20029;-47
2022/07/31 07:23:37;;;;;;;20.00;7.32;;;29.10;99.90;;;;;;5011355;28;20072;-47
2022/07/31 07:26:03;;;;;;;18.13;6.30;;;29.10;99.90;;;;;;5011709;28;20022;-47
2022/07/31 07:28:29;;;;;;;12.43;6.60;;;29.10;99.90;;;;;;5011400;28;20095;-47
2022/07/31 07:30:55;;;;;;;19.23;6.93;;;29.10;99.90;;;;;;5010153;28;20450;-47
2022/07/31 07:33:21;;;;;;;17.98;6.00;;;29.10;99.90;;;;;;5009953;28;20034;-47
2022/07/31 07:35:46;;;;;;;16.58;6.60;;;29.10;99.90;;;;;;5011167;28;20164;-48
2022/07/31 07:38:12;;;;;;;28.67;7.10;;;29.10;99.90;;;;;;4993920;28;20469;-47
2022/07/31 07:40:39;;;;;;;16.38;6.55;;;29.10;99.90;;;;;;5011482;28;20033;-48
2022/07/31 07:43:06;;;;;;;19.20;6.43;;;29.10;99.90;;;;;;4994137;28;20363;-47
2022/07/31 07:45:32;;;;;;;17.42;6.97;;;29.10;99.90;;;;;;5011373;28;20274;-47
2022/07/31 07:47:57;;;;;;;19.63;6.47;;;29.10;99.90;;;;;;4993718;28;20604;-47
2022/07/31 07:50:23;;;;;;;17.02;6.32;;;29.10;99.90;;;;;;5011197;28;20109;-47
2022/07/31 07:52:49;;;;;;;19.92;7.40;;;29.10;99.90;;;;;;5011130;28;20034;-47
2022/07/31 07:55:15;;;;;;;17.42;6.68;;;29.10;99.90;;;;;;4993639;28;20049;-48
2022/07/31 07:57:43;;;;;;;16.05;5.97;;;29.10;99.90;;;;;;5011119;28;20028;-50
2022/07/31 08:00:11;;;;;;;17.10;6.78;;;29.10;99.90;;;;;;5010931;28;20078;-48
2022/07/31 08:02:37;;;;;;;22.52;6.97;;;29.20;99.90;;;;;;5011019;28;20036;-48
2022/07/31 08:05:04;;;;;;;19.13;5.35;;;29.20;99.90;;;;;;5011156;28;20033;-51
2022/07/31 08:07:31;;;;;;;17.88;6.20;;;29.20;99.90;;;;;;5010983;28;20037;-47
2022/07/31 08:09:58;;;;;;;13.80;5.75;;;29.20;99.90;;;;;;4993310;28;20113;-47
2022/07/31 08:12:25;;;;;;;36.63;6.00;;;29.20;99.90;;;;;;5010967;28;20474;-47
2022/07/31 08:14:51;;;;;;;16.83;6.13;;;29.30;99.90;;;;;;4993174;28;20084;-47
2022/07/31 08:17:17;;;;;;;13.65;5.90;;;29.30;99.90;;;;;;5010850;28;20500;-47
2022/07/31 08:19:43;;;;;;;18.27;6.28;;;29.30;99.90;;;;;;5010907;28;20467;-47
2022/07/31 08:22:09;;;;;;;16.40;6.18;;;29.40;99.90;;;;;;5010845;28;20030;-47
2022/07/31 08:24:35;;;;;;;13.35;5.82;;;29.40;99.90;;;;;;5011034;28;20045;-47
2022/07/31 08:29:45;;;;;;;16.80;6.63;;;29.50;99.90;;;;;;5014754;28;20125;-46
2022/07/31 08:32:12;;;;;;;16.52;6.05;;;29.50;99.90;;;;;;5014221;28;20100;-47
2022/07/31 08:34:38;;;;;;;15.48;6.32;;;29.50;99.90;;;;;;5014318;28;20041;-47
2022/07/31 08:37:05;;;;;;;15.30;6.60;;;29.50;99.90;;;;;;5014593;28;20053;-47
2022/07/31 08:39:34;;;;;;;12.48;6.32;;;29.50;99.90;;;;;;5014296;28;20034;-47
2022/07/31 08:42:07;;;;;;;17.33;6.35;;;29.50;99.90;;;;;;5014375;28;20026;-46
2022/07/31 08:44:38;;;;;;;17.85;6.22;;;29.50;99.90;;;;;;5014095;28;20477;-46
2022/07/31 08:47:08;;;;;;;18.38;6.00;;;29.50;99.90;;;;;;5014277;28;20433;-46
2022/07/31 08:49:48;;;;;;;12.85;5.65;;;29.50;99.90;;;;;;5014273;28;20037;-47
2022/07/31 08:52:19;;;;;;;16.38;6.28;;;29.50;99.90;;;;;;5014171;28;20441;-47
2022/07/31 08:54:46;;;;;;;13.52;5.57;;;29.50;99.90;;;;;;5013814;28;20033;-47
2022/07/31 08:57:12;;;;;;;18.58;7.47;;;29.50;99.90;;;;;;5013971;28;20109;-48
2022/07/31 08:59:40;;;;;;;16.48;6.25;;;29.50;99.90;;;;;;5013917;28;20056;-47
2022/07/31 09:02:07;;;;;;;18.35;6.05;;;29.50;99.90;;;;;;5013898;28;20069;-47
2022/07/31 09:04:33;;;;;;;13.40;5.65;;;29.50;99.90;;;;;;5013914;28;20077;-47
2022/07/31 09:07:00;;;;;;;14.23;6.20;;;29.50;99.90;;;;;;5013632;28;20029;-47
2022/07/31 09:09:27;;;;;;;16.08;5.95;;;29.50;99.90;;;;;;4996331;28;20022;-47
2022/07/31 09:11:53;;;;;;;20.35;6.30;;;29.50;99.90;;;;;;5013743;28;20165;-47
2022/07/31 09:14:29;;;;;;;14.57;6.30;;;29.50;99.90;;;;;;5013594;28;20037;-47
2022/07/31 09:16:55;;;;;;;15.40;6.22;;;29.50;99.90;;;;;;5013483;28;20393;-46
2022/07/31 09:19:23;;;;;;;32.55;5.70;;;29.60;99.90;;;;;;5013557;28;20385;-47
2022/07/31 09:21:51;;;;;;;16.92;5.18;;;29.60;99.90;;;;;;5013459;28;20393;-46
2022/07/31 09:24:29;;;;;;;15.07;5.60;;;29.60;99.90;;;;;;5013325;28;20037;-47
2022/07/31 09:27:06;;;;;;;15.75;5.28;;;29.70;99.90;;;;;;5013454;28;20374;-47
2022/07/31 09:29:37;;;;;;;13.27;6.90;;;29.70;99.90;;;;;;5013253;28;20410;-47
2022/07/31 09:32:11;;;;;;;16.70;5.43;;;29.70;99.90;;;;;;5013160;28;20018;-47
2022/07/31 09:34:37;;;;;;;16.25;6.25;;;29.70;99.90;;;;;;5013372;28;20049;-47
2022/07/31 09:37:17;;;;;;;13.57;6.43;;;29.70;99.90;;;;;;5012787;28;20084;-47
2022/07/31 09:39:54;;;;;;;14.55;5.38;;;29.80;99.90;;;;;;5013089;28;20378;-47
2022/07/31 09:42:21;;;;;;;;;;;29.80;99.90;;;;;;5013569;28;20033;-48
2022/07/31 09:44:48;;;;;;;21.07;6.10;;;29.80;99.90;;;;;;5011887;28;20266;-48
2022/07/31 09:47:30;;;;;;;21.67;6.10;;;29.90;99.90;;;;;;5011765;28;20025;-48
2022/07/31 09:50:01;;;;;;;17.30;4.57;;;29.80;99.90;;;;;;5013048;28;20048;-48
2022/07/31 09:52:29;;;;;;;15.75;6.35;;;29.90;99.90;;;;;;5012800;28;20033;-48
2022/07/31 09:55:06;;;;;;;17.25;5.07;;;29.90;99.90;;;;;;5012676;28;20062;-48
2022/07/31 09:57:36;;;;;;;14.13;5.07;;;29.90;99.90;;;;;;5012875;28;20358;-47
2022/07/31 10:00:11;;;;;;;19.27;5.55;;;29.90;99.90;;;;;;5012568;28;20046;-47
2022/07/31 10:02:38;;;;;;;7.70;4.72;;;29.90;99.90;;;;;;5012421;28;20072;-47
2022/07/31 10:05:05;;;;;;;16.25;5.80;;;30.00;99.90;;;;;;5012541;28;20018;-47
2022/07/31 10:07:35;;;;;;;18.30;6.75;;;30.00;99.90;;;;;;5012666;28;20037;-47
2022/07/31 10:10:03;;;;;;;16.33;6.85;;;30.00;99.90;;;;;;5012642;28;20144;-46
2022/07/31 10:12:32;;;;;;;22.10;15.55;;;30.10;99.90;;;;;;5012627;28;20109;-50
2022/07/31 10:15:04;;;;;;;18.33;6.10;;;30.10;99.90;;;;;;5012545;28;20033;-47
2022/07/31 10:17:32;;;;;;;12.90;5.05;;;30.20;99.90;;;;;;5009335;28;20030;-47
2022/07/31 10:20:04;;;;;;;23.33;5.68;;;30.20;99.90;;;;;;4999964;28;20565;-48
2022/07/31 10:22:42;;;;;;;16.08;8.82;;;30.30;99.90;;;;;;4989781;28;20079;-45
2022/07/31 10:25:11;;;;;;;14.02;5.20;;;30.30;99.90;;;;;;4986606;28;20018;-46
2022/07/31 10:27:38;;;;;;;19.98;8.82;;;30.30;99.90;;;;;;4980086;28;20038;-45
2022/07/31 10:30:09;;;;;;;22.88;10.27;;;30.30;99.90;;;;;;4991175;28;20726;-47
2022/07/31 10:32:35;;;;;;;22.98;13.65;;;30.30;99.90;;;;;;4983587;28;20061;-47
2022/07/31 10:35:03;;;;;;;24.33;13.75;;;30.40;99.90;;;;;;4989680;28;20474;-47
2022/07/31 10:37:44;;;;;;;13.02;6.40;;;30.40;99.90;;;;;;4990306;28;20125;-49
2022/07/31 10:40:19;;;;;;;13.30;6.28;;;30.40;99.90;;;;;;4990110;28;20504;-50
2022/07/31 10:43:04;;;;;;;13.68;4.40;;;30.50;99.90;;;;;;4990172;28;20556;-50
2022/07/31 10:45:30;;;;;;;18.80;5.65;;;30.50;99.90;;;;;;4990899;28;20172;-51
2022/07/31 10:47:59;;;;;;;11.20;4.22;;;30.50;99.90;;;;;;4989895;28;20148;-50
2022/07/31 10:50:29;;;;;;;15.73;8.88;;;30.50;99.90;;;;;;4989294;28;20026;-50
2022/07/31 10:53:07;;;;;;;20.63;5.43;;;30.50;99.90;;;;;;4985792;28;20151;-50
2022/07/31 10:55:34;;;;;;;13.45;4.53;;;30.50;99.90;;;;;;4988808;28;20400;-50
2022/07/31 10:58:08;;;;;;;19.80;9.63;;;30.60;99.90;;;;;;4989699;28;20109;-50
2022/07/31 11:00:34;;;;;;;20.27;10.93;;;30.50;99.90;;;;;;4989533;28;20386;-50
2022/07/31 11:03:15;;;;;;;14.82;7.68;;;30.60;99.90;;;;;;4989927;28;20065;-50
2022/07/31 11:05:52;;;;;;;14.95;6.68;;;30.60;99.90;;;;;;4989249;28;20046;-50
2022/07/31 11:08:18;;;;;;;18.95;9.43;;;30.70;99.90;;;;;;4989515;28;20057;-49
2022/07/31 11:11:11;;;;;;;16.55;5.10;;;30.60;99.90;;;;;;4989919;28;20544;-49
2022/07/31 11:13:50;;;;;;;18.30;7.63;;;30.70;99.90;;;;;;4987267;28;20046;-49
2022/07/31 11:16:17;;;;;;;15.23;6.78;;;30.70;99.90;;;;;;4986676;28;20050;-49
2022/07/31 11:18:55;;;;;;;19.80;8.13;;;30.60;99.90;;;;;;4989585;28;20026;-48
2022/07/31 11:21:34;;;;;;;13.27;5.20;;;30.60;99.90;;;;;;4988572;28;20053;-49
2022/07/31 11:24:01;;;;;;;29.05;18.73;;;30.60;99.90;;;;;;4991052;28;20081;-49
2022/07/31 11:26:27;;;;;;;14.73;5.60;;;30.70;99.90;;;;;;4989633;28;20046;-49
2022/07/31 11:28:52;;;;;;;11.35;5.70;;;30.70;99.90;;;;;;4987090;28;20414;-47
2022/07/31 11:31:18;;;;;;;20.58;10.60;;;30.70;99.90;;;;;;4990189;28;20025;-48
2022/07/31 11:33:46;;;;;;;15.20;5.75;;;30.70;99.90;;;;;;4988192;28;20045;-48
2022/07/31 11:36:20;;;;;;;21.23;12.35;;;30.70;99.90;;;;;;4988968;28;20034;-48
2022/07/31 11:38:48;;;;;;;11.93;5.82;;;30.70;99.90;;;;;;4988906;28;20030;-50
2022/07/31 11:41:15;;;;;;;14.00;5.70;;;30.70;99.90;;;;;;4983180;28;20042;-49
2022/07/31 11:43:47;;;;;;;17.40;6.63;;;30.70;99.90;;;;;;4966734;28;20414;-49
2022/07/31 11:46:23;;;;;;;24.48;7.25;;;30.70;99.90;;;;;;4986576;28;20035;-48
2022/07/31 11:48:49;;;;;;;15.03;8.47;;;30.70;99.90;;;;;;4990962;28;20030;-47
2022/07/31 11:51:18;;;;;;;10.35;4.85;;;30.70;99.90;;;;;;4986289;28;20617;-49
2022/07/31 11:53:45;;;;;;;17.17;7.35;;;30.70;99.90;;;;;;4985525;28;20027;-48
2022/07/31 11:56:11;;;;;;;14.15;5.47;;;30.70;99.90;;;;;;4972279;28;20473;-48
2022/07/31 11:58:40;;;;;;;12.40;5.87;;;30.70;99.90;;;;;;4988744;28;20474;-49
2022/07/31 12:01:06;;;;;;;14.02;4.57;;;30.70;99.90;;;;;;4988195;28;20054;-48
2022/07/31 12:03:36;;;;;;;15.02;5.13;;;30.70;99.90;;;;;;4991674;28;20109;-49
2022/07/31 12:06:04;;;;;;;12.80;4.40;;;30.70;99.90;;;;;;4992975;28;20069;-49
2022/07/31 12:08:31;;;;;;;16.13;4.93;;;30.80;99.90;;;;;;4994839;28;20084;-49
2022/07/31 12:10:58;;;;;;;14.77;6.25;;;30.70;99.90;;;;;;4996024;28;20029;-49
2022/07/31 12:13:25;;;;;;;17.67;8.27;;;30.80;99.90;;;;;;4993908;28;20023;-49
2022/07/31 12:15:54;;;;;;;19.10;6.55;;;30.80;99.90;;;;;;4995333;28;20699;-47
2022/07/31 12:18:22;;;;;;;17.70;10.38;;;30.80;99.90;;;;;;4990210;28;20046;-48
2022/07/31 12:20:56;;;;;;;16.75;8.25;;;30.80;99.90;;;;;;4993582;28;20125;-49
2022/07/31 12:23:22;;;;;;;21.55;7.50;;;30.90;99.90;;;;;;4992276;28;20014;-50
2022/07/31 12:25:48;;;;;;;20.23;9.25;;;30.80;99.90;;;;;;4993451;28;20136;-49
2022/07/31 12:28:15;;;;;;;17.55;5.50;;;30.90;99.90;;;;;;4990745;28;20052;-48
2022/07/31 12:30:42;;;;;;;15.23;4.68;;;30.80;99.90;;;;;;4990487;28;20034;-49
2022/07/31 12:33:09;;;;;;;15.15;5.88;;;30.80;99.90;;;;;;4991368;28;20019;-47
2022/07/31 12:35:45;;;;;;;13.50;5.38;;;30.90;99.90;;;;;;4975364;28;20096;-49
2022/07/31 12:38:22;;;;;;;14.75;5.35;;;30.90;99.90;;;;;;4991384;28;20022;-49
2022/07/31 12:40:48;;;;;;;22.63;5.35;;;31.00;99.90;;;;;;4989536;28;20030;-49
2022/07/31 12:43:14;;;;;;;15.95;4.82;;;31.00;99.90;;;;;;4990137;28;20385;-49
2022/07/31 12:45:40;;;;;;;21.83;6.15;;;30.90;99.90;;;;;;4991384;28;20026;-48